sensor_id;sensor_type;location;lat;lon;timestamp;pressure;altitude;pressure_sealevel;temperature;humidity
44765;BME280;30484;52.382;5.260;2023-03-01T00:01:23;103362.63;;;3.14;100.00
44765;BME280;30484;52.382;5.260;2023-03-01T00:03:53;103358.09;;;3.08;100.00
44765;BME280;30484;52.382;5.260;2023-03-01T00:06:22;103359.75;;;3.05;100.00
44765;BME280;30484;52.382;5.260;2023-03-01T00:08:51;103359.75;;;3.05;100.00
44765;BME280;30484;52.382;5.260;2023-03-01T00:11:21;103360.63;;;3.02;100.00
44765;BME280;30484;52.382;5.260;2023-03-01T00:13:53;103356.16;;;3.00;100.00
44765;BME280;30484;52.382;5.260;2023-03-01T00:16:25;103340.88;;;2.86;100.00
44765;BME280;30484;52.382;5.260;2023-03-01T00:18:55;103359.28;;;2.83;100.00
44765;BME280;30484;52.382;5.260;2023-03-01T00:21:25;103354.06;;;2.86;100.00
44765;BME280;30484;52.382;5.260;2023-03-01T00:23:54;103352.25;;;2.82;100.00
44765;BME280;30484;52.382;5.260;2023-03-01T00:26:24;103341.81;;;2.88;100.00
44765;BME280;30484;52.382;5.260;2023-03-01T00:28:56;103338.09;;;2.80;100.00
44765;BME280;30484;52.382;5.260;2023-03-01T00:31:27;103338.13;;;2.82;100.00
44765;BME280;30484;52.382;5.260;2023-03-01T00:33:57;103342.53;;;2.81;100.00
44765;BME280;30484;52.382;5.260;2023-03-01T00:36:27;103339.81;;;2.76;100.00
44765;BME280;30484;52.382;5.260;2023-03-01T00:38:56;103330.00;;;2.71;100.00
44765;BME280;30484;52.382;5.260;2023-03-01T00:41:25;103336.13;;;2.70;100.00
44765;BME280;30484;52.382;5.260;2023-03-01T00:43:55;103330.66;;;2.62;100.00
44765;BME280;30484;52.382;5.260;2023-03-01T00:46:25;103321.88;;;2.63;100.00
44765;BME280;30484;52.382;5.260;2023-03-01T00:48:54;103331.56;;;2.63;100.00
44765;BME280;30484;52.382;5.260;2023-03-01T00:51:24;103327.88;;;2.56;100.00
44765;BME280;30484;52.382;5.260;2023-03-01T00:53:55;103319.16;;;2.58;100.00
44765;BME280;30484;52.382;5.260;2023-03-01T00:56:24;103321.72;;;2.55;100.00
44765;BME280;30484;52.382;5.260;2023-03-01T00:58:52;103322.56;;;2.54;100.00
44765;BME280;30484;52.382;5.260;2023-03-01T01:01:24;103334.78;;;2.51;100.00
44765;BME280;30484;52.382;5.260;2023-03-01T01:03:55;103332.22;;;2.52;100.00
44765;BME280;30484;52.382;5.260;2023-03-01T01:06:26;103327.84;;;2.54;100.00
44765;BME280;30484;52.382;5.260;2023-03-01T01:08:56;103326.00;;;2.50;100.00
44765;BME280;30484;52.382;5.260;2023-03-01T01:11:26;103324.34;;;2.54;100.00
44765;BME280;30484;52.382;5.260;2023-03-01T01:13:55;103320.69;;;2.49;100.00
44765;BME280;30484;52.382;5.260;2023-03-01T01:16:26;103318.91;;;2.49;100.00
44765;BME280;30484;52.382;5.260;2023-03-01T01:18:56;103308.34;;;2.48;100.00
44765;BME280;30484;52.382;5.260;2023-03-01T01:21:25;103306.44;;;2.42;100.00
44765;BME280;30484;52.382;5.260;2023-03-01T01:23:54;103309.84;;;2.38;100.00
44765;BME280;30484;52.382;5.260;2023-03-01T01:26:24;103309.72;;;2.32;100.00
44765;BME280;30484;52.382;5.260;2023-03-01T01:28:56;103303.50;;;2.28;100.00
44765;BME280;30484;52.382;5.260;2023-03-01T01:31:26;103303.44;;;2.27;100.00
44765;BME280;30484;52.382;5.260;2023-03-01T01:33:56;103292.72;;;2.19;100.00
44765;BME280;30484;52.382;5.260;2023-03-01T01:36:24;103304.06;;;2.16;100.00
44765;BME280;30484;52.382;5.260;2023-03-01T01:38:53;103302.31;;;2.15;100.00
44765;BME280;30484;52.382;5.260;2023-03-01T01:41:22;103304.88;;;2.14;100.00
44765;BME280;30484;52.382;5.260;2023-03-01T01:44:13;103291.59;;;2.09;100.00
44765;BME280;30484;52.382;5.260;2023-03-01T01:46:44;103282.69;;;2.04;100.00
44765;BME280;30484;52.382;5.260;2023-03-01T01:49:20;103278.91;;;1.93;100.00
44765;BME280;30484;52.382;5.260;2023-03-01T01:51:55;103275.31;;;1.90;100.00
44765;BME280;30484;52.382;5.260;2023-03-01T01:54:27;103284.22;;;1.94;100.00
44765;BME280;30484;52.382;5.260;2023-03-01T01:57:01;103285.91;;;1.92;100.00
44765;BME280;30484;52.382;5.260;2023-03-01T01:59:31;103277.88;;;1.87;100.00
44765;BME280;30484;52.382;5.260;2023-03-01T02:02:03;103290.06;;;1.84;100.00
44765;BME280;30484;52.382;5.260;2023-03-01T02:04:31;103286.59;;;1.85;100.00
44765;BME280;30484;52.382;5.260;2023-03-01T02:07:02;103281.44;;;1.89;100.00
44765;BME280;30484;52.382;5.260;2023-03-01T02:09:32;103289.28;;;1.86;100.00
44765;BME280;30484;52.382;5.260;2023-03-01T02:12:02;103278.66;;;1.83;100.00
44765;BME280;30484;52.382;5.260;2023-03-01T02:14:31;103283.94;;;1.83;100.00
44765;BME280;30484;52.382;5.260;2023-03-01T02:16:59;103276.69;;;1.75;100.00
44765;BME280;30484;52.382;5.260;2023-03-01T02:19:37;103273.16;;;1.74;100.00
44765;BME280;30484;52.382;5.260;2023-03-01T02:22:13;103269.63;;;1.73;100.00
44765;BME280;30484;52.382;5.260;2023-03-01T02:24:50;103277.47;;;1.72;100.00
44765;BME280;30484;52.382;5.260;2023-03-01T02:27:22;103266.06;;;1.71;100.00
44765;BME280;30484;52.382;5.260;2023-03-01T02:29:55;103273.84;;;1.67;100.00
44765;BME280;30484;52.382;5.260;2023-03-01T02:32:24;103248.03;;;1.53;100.00
44765;BME280;30484;52.382;5.260;2023-03-01T02:34:53;103257.88;;;1.61;100.00
44765;BME280;30484;52.382;5.260;2023-03-01T02:37:21;103246.38;;;1.57;100.00
44765;BME280;30484;52.382;5.260;2023-03-01T02:39:54;103252.47;;;1.56;100.00
44765;BME280;30484;52.382;5.260;2023-03-01T02:42:26;103253.28;;;1.53;100.00
44765;BME280;30484;52.382;5.260;2023-03-01T02:44:58;103256.94;;;1.59;100.00
44765;BME280;30484;52.382;5.260;2023-03-01T02:47:26;103254.13;;;1.52;100.00
44765;BME280;30484;52.382;5.260;2023-03-01T02:49:54;103248.72;;;1.46;100.00
44765;BME280;30484;52.382;5.260;2023-03-01T02:52:28;103252.22;;;1.47;100.00
44765;BME280;30484;52.382;5.260;2023-03-01T02:55:01;103252.38;;;1.51;100.00
44765;BME280;30484;52.382;5.260;2023-03-01T02:57:31;103244.41;;;1.48;100.00
44765;BME280;30484;52.382;5.260;2023-03-01T03:00:05;103251.38;;;1.48;100.00
44765;BME280;30484;52.382;5.260;2023-03-01T03:02:35;103239.75;;;1.40;100.00
44765;BME280;30484;52.382;5.260;2023-03-01T03:05:07;103237.13;;;1.40;100.00
44765;BME280;30484;52.382;5.260;2023-03-01T03:07:37;103232.69;;;1.37;100.00
44765;BME280;30484;52.382;5.260;2023-03-01T03:10:08;103230.84;;;1.34;100.00
44765;BME280;30484;52.382;5.260;2023-03-01T03:12:38;103242.19;;;1.32;100.00
44765;BME280;30484;52.382;5.260;2023-03-01T03:15:10;103235.06;;;1.28;100.00
44765;BME280;30484;52.382;5.260;2023-03-01T03:17:41;103228.03;;;1.28;100.00
44765;BME280;30484;52.382;5.260;2023-03-01T03:20:13;103235.00;;;1.26;100.00
44765;BME280;30484;52.382;5.260;2023-03-01T03:22:46;103221.84;;;1.26;100.00
44765;BME280;30484;52.382;5.260;2023-03-01T03:25:15;103222.66;;;1.24;100.00
44765;BME280;30484;52.382;5.260;2023-03-01T03:27:46;103227.00;;;1.22;100.00
44765;BME280;30484;52.382;5.260;2023-03-01T03:30:18;103211.81;;;1.11;100.00
44765;BME280;30484;52.382;5.260;2023-03-01T03:32:48;103212.88;;;1.19;100.00
44765;BME280;30484;52.382;5.260;2023-03-01T03:35:21;103216.28;;;1.15;100.00
44765;BME280;30484;52.382;5.260;2023-03-01T03:37:49;103204.91;;;1.16;100.00
44765;BME280;30484;52.382;5.260;2023-03-01T03:40:31;103202.97;;;1.09;100.00
44765;BME280;30484;52.382;5.260;2023-03-01T03:43:00;103206.53;;;1.11;100.00
44765;BME280;30484;52.382;5.260;2023-03-01T03:45:30;103198.50;;;1.07;100.00
44765;BME280;30484;52.382;5.260;2023-03-01T03:48:00;103204.66;;;1.07;100.00
44765;BME280;30484;52.382;5.260;2023-03-01T03:50:30;103212.66;;;1.10;100.00
44765;BME280;30484;52.382;5.260;2023-03-01T03:53:00;103214.47;;;1.13;100.00
44765;BME280;30484;52.382;5.260;2023-03-01T03:55:29;103213.56;;;1.12;100.00
44765;BME280;30484;52.382;5.260;2023-03-01T03:57:58;103211.69;;;1.08;100.00
44765;BME280;30484;52.382;5.260;2023-03-01T04:00:30;103207.31;;;1.07;100.00
44765;BME280;30484;52.382;5.260;2023-03-01T04:02:58;103206.22;;;1.00;100.00
44765;BME280;30484;52.382;5.260;2023-03-01T04:05:27;103193.72;;;0.92;100.00
44765;BME280;30484;52.382;5.260;2023-03-01T04:07:57;103193.94;;;1.01;100.00
44765;BME280;30484;52.382;5.260;2023-03-01T04:10:36;103193.94;;;1.01;100.00
44765;BME280;30484;52.382;5.260;2023-03-01T04:13:05;103202.69;;;0.98;100.00
44765;BME280;30484;52.382;5.260;2023-03-01T04:15:35;103193.78;;;0.95;100.00
44765;BME280;30484;52.382;5.260;2023-03-01T04:18:03;103198.97;;;0.92;100.00
44765;BME280;30484;52.382;5.260;2023-03-01T04:20:34;103202.44;;;0.91;100.00
44765;BME280;30484;52.382;5.260;2023-03-01T04:23:04;103211.31;;;0.93;100.00
44765;BME280;30484;52.382;5.260;2023-03-01T04:25:38;103209.44;;;0.89;100.00
44765;BME280;30484;52.382;5.260;2023-03-01T04:28:07;103209.50;;;0.92;100.00
44765;BME280;30484;52.382;5.260;2023-03-01T04:30:37;103213.03;;;0.92;100.00
44765;BME280;30484;52.382;5.260;2023-03-01T04:33:07;103189.31;;;0.92;100.00
44765;BME280;30484;52.382;5.260;2023-03-01T04:35:36;103190.25;;;0.93;100.00
44765;BME280;30484;52.382;5.260;2023-03-01T04:38:05;103197.09;;;0.88;100.00
44765;BME280;30484;52.382;5.260;2023-03-01T04:40:34;103189.25;;;0.89;100.00
44765;BME280;30484;52.382;5.260;2023-03-01T04:43:02;103197.19;;;0.91;100.00
44765;BME280;30484;52.382;5.260;2023-03-01T04:45:32;103190.13;;;0.90;100.00
44765;BME280;30484;52.382;5.260;2023-03-01T04:48:04;103194.59;;;0.92;100.00
44765;BME280;30484;52.382;5.260;2023-03-01T04:50:32;103200.81;;;0.94;100.00
44765;BME280;30484;52.382;5.260;2023-03-01T04:53:03;103199.78;;;0.89;100.00
44765;BME280;30484;52.382;5.260;2023-03-01T04:55:31;103189.97;;;0.83;100.00
44765;BME280;30484;52.382;5.260;2023-03-01T04:57:59;103189.31;;;0.92;100.00
44765;BME280;30484;52.382;5.260;2023-03-01T05:00:28;103182.22;;;0.90;100.00
44765;BME280;30484;52.382;5.260;2023-03-01T05:02:57;103175.25;;;0.90;100.00
44765;BME280;30484;52.382;5.260;2023-03-01T05:05:29;103175.25;;;0.90;100.00
44765;BME280;30484;52.382;5.260;2023-03-01T05:07:59;103177.72;;;0.85;100.00
44765;BME280;30484;52.382;5.260;2023-03-01T05:10:29;103187.44;;;0.88;100.00
44765;BME280;30484;52.382;5.260;2023-03-01T05:13:01;103173.38;;;0.86;100.00
44765;BME280;30484;52.382;5.260;2023-03-01T05:15:31;103167.13;;;0.82;100.00
44765;BME280;30484;52.382;5.260;2023-03-01T05:18:00;103169.63;;;0.78;100.00
44765;BME280;30484;52.382;5.260;2023-03-01T05:20:30;103155.28;;;0.66;100.00
44765;BME280;30484;52.382;5.260;2023-03-01T05:22:59;103162.56;;;0.77;100.00
44765;BME280;30484;52.382;5.260;2023-03-01T05:25:33;103150.41;;;0.80;100.00
44765;BME280;30484;52.382;5.260;2023-03-01T05:28:02;103152.97;;;0.77;100.00
44765;BME280;30484;52.382;5.260;2023-03-01T05:30:31;103145.16;;;0.80;100.00
44765;BME280;30484;52.382;5.260;2023-03-01T05:33:00;103144.31;;;0.81;100.00
44765;BME280;30484;52.382;5.260;2023-03-01T05:35:32;103150.34;;;0.77;100.00
44765;BME280;30484;52.382;5.260;2023-03-01T05:38:03;103152.00;;;0.75;100.00
44765;BME280;30484;52.382;5.260;2023-03-01T05:40:33;103133.66;;;0.78;100.00
44765;BME280;30484;52.382;5.260;2023-03-01T05:43:01;103138.91;;;0.77;100.00
44765;BME280;30484;52.382;5.260;2023-03-01T05:45:32;103125.59;;;0.71;100.00
44765;BME280;30484;52.382;5.260;2023-03-01T05:48:00;103137.94;;;0.73;100.00
44765;BME280;30484;52.382;5.260;2023-03-01T05:50:33;103121.00;;;0.63;100.00
44765;BME280;30484;52.382;5.260;2023-03-01T05:53:03;103118.59;;;0.73;100.00
44765;BME280;30484;52.382;5.260;2023-03-01T05:55:32;103124.81;;;0.75;100.00
44765;BME280;30484;52.382;5.260;2023-03-01T05:58:01;103130.88;;;0.72;100.00
44765;BME280;30484;52.382;5.260;2023-03-01T06:00:30;103129.13;;;0.73;100.00
44765;BME280;30484;52.382;5.260;2023-03-01T06:02:59;103127.22;;;0.67;100.00
44765;BME280;30484;52.382;5.260;2023-03-01T06:05:29;103127.94;;;0.61;100.00
44765;BME280;30484;52.382;5.260;2023-03-01T06:07:59;103123.50;;;0.59;100.00
44765;BME280;30484;52.382;5.260;2023-03-01T06:10:28;103121.69;;;0.56;100.00
44765;BME280;30484;52.382;5.260;2023-03-01T06:12:56;103121.69;;;0.56;100.00
44765;BME280;30484;52.382;5.260;2023-03-01T06:15:25;103125.09;;;0.54;100.00
44765;BME280;30484;52.382;5.260;2023-03-01T06:17:56;103123.56;;;0.60;100.00
44765;BME280;30484;52.382;5.260;2023-03-01T06:20:27;103126.31;;;0.65;100.00
44765;BME280;30484;52.382;5.260;2023-03-01T06:22:57;103119.44;;;0.70;100.00
44765;BME280;30484;52.382;5.260;2023-03-01T06:25:27;103136.41;;;0.81;100.00
44765;BME280;30484;52.382;5.260;2023-03-01T06:27:56;103134.00;;;0.91;100.00
44765;BME280;30484;52.382;5.260;2023-03-01T06:30:25;103135.97;;;0.98;100.00
44765;BME280;30484;52.382;5.260;2023-03-01T06:32:54;103139.63;;;1.03;100.00
44765;BME280;30484;52.382;5.260;2023-03-01T06:35:27;103138.22;;;1.17;100.00
44765;BME280;30484;52.382;5.260;2023-03-01T06:38:00;103139.53;;;1.35;100.00
44765;BME280;30484;52.382;5.260;2023-03-01T06:40:29;103142.19;;;1.35;100.00
44765;BME280;30484;52.382;5.260;2023-03-01T06:42:59;103142.34;;;1.41;100.00
44765;BME280;30484;52.382;5.260;2023-03-01T06:45:27;103143.25;;;1.43;100.00
44765;BME280;30484;52.382;5.260;2023-03-01T06:48:03;103151.69;;;1.65;100.00
44765;BME280;30484;52.382;5.260;2023-03-01T06:50:32;103154.66;;;1.79;100.00
44765;BME280;30484;52.382;5.260;2023-03-01T06:53:02;103149.38;;;1.79;100.00
44765;BME280;30484;52.382;5.260;2023-03-01T06:55:31;103142.22;;;1.73;100.00
44765;BME280;30484;52.382;5.260;2023-03-01T06:58:00;103143.84;;;1.68;100.00
44765;BME280;30484;52.382;5.260;2023-03-01T07:00:29;103143.44;;;1.87;100.00
44765;BME280;30484;52.382;5.260;2023-03-01T07:02:59;103147.06;;;1.91;100.00
44765;BME280;30484;52.382;5.260;2023-03-01T07:05:29;103148.78;;;1.90;100.00
44765;BME280;30484;52.382;5.260;2023-03-01T07:07:58;103156.38;;;2.16;100.00
44765;BME280;30484;52.382;5.260;2023-03-01T07:10:28;103158.09;;;2.14;100.00
44765;BME280;30484;52.382;5.260;2023-03-01T07:12:57;103152.88;;;2.16;100.00
44765;BME280;30484;52.382;5.260;2023-03-01T07:15:26;103159.97;;;2.18;100.00
44765;BME280;30484;52.382;5.260;2023-03-01T07:17:56;103167.00;;;2.19;100.00
44765;BME280;30484;52.382;5.260;2023-03-01T07:20:24;103172.09;;;2.51;100.00
44765;BME280;30484;52.382;5.260;2023-03-01T07:22:53;103168.34;;;2.41;100.00
44765;BME280;30484;52.382;5.260;2023-03-01T07:25:21;103165.47;;;2.31;100.00
44765;BME280;30484;52.382;5.260;2023-03-01T07:27:52;103162.09;;;2.38;100.00
44765;BME280;30484;52.382;5.260;2023-03-01T07:30:20;103176.25;;;2.40;100.00
44765;BME280;30484;52.382;5.260;2023-03-01T07:32:52;103168.41;;;2.45;100.00
44765;BME280;30484;52.382;5.260;2023-03-01T07:35:22;103167.66;;;2.50;100.00
44765;BME280;30484;52.382;5.260;2023-03-01T07:37:50;103162.09;;;2.38;100.00
44765;BME280;30484;52.382;5.260;2023-03-01T07:40:19;103153.28;;;2.36;100.00
44765;BME280;30484;52.382;5.260;2023-03-01T07:42:47;103165.13;;;2.56;100.00
44765;BME280;30484;52.382;5.260;2023-03-01T07:45:17;103163.31;;;2.52;100.00
44765;BME280;30484;52.382;5.260;2023-03-01T07:47:46;103167.97;;;2.66;100.00
44765;BME280;30484;52.382;5.260;2023-03-01T07:50:14;103164.03;;;2.45;100.00
44765;BME280;30484;52.382;5.260;2023-03-01T07:52:44;103174.03;;;2.62;100.00
44765;BME280;30484;52.382;5.260;2023-03-01T07:55:13;103166.19;;;2.65;100.00
44765;BME280;30484;52.382;5.260;2023-03-01T07:57:41;103159.22;;;2.67;100.00
44765;BME280;30484;52.382;5.260;2023-03-01T08:00:11;103166.44;;;2.77;100.00
44765;BME280;30484;52.382;5.260;2023-03-01T08:02:41;103157.66;;;2.78;100.00
44765;BME280;30484;52.382;5.260;2023-03-01T08:05:10;103162.94;;;2.78;100.00
44765;BME280;30484;52.382;5.260;2023-03-01T08:07:41;103160.84;;;3.07;100.00
44765;BME280;30484;52.382;5.260;2023-03-01T08:10:10;103160.66;;;2.97;100.00
44765;BME280;30484;52.382;5.260;2023-03-01T08:12:39;103161.47;;;2.92;100.00
44765;BME280;30484;52.382;5.260;2023-03-01T08:15:08;103154.22;;;3.31;100.00
44765;BME280;30484;52.382;5.260;2023-03-01T08:17:37;103140.38;;;3.46;100.00
44765;BME280;30484;52.382;5.260;2023-03-01T08:20:08;103152.25;;;3.73;100.00
44765;BME280;30484;52.382;5.260;2023-03-01T08:22:39;103157.63;;;3.79;100.00
44765;BME280;30484;52.382;5.260;2023-03-01T08:25:08;103146.38;;;3.92;100.00
44765;BME280;30484;52.382;5.260;2023-03-01T08:27:36;103148.38;;;4.09;100.00
44765;BME280;30484;52.382;5.260;2023-03-01T08:30:06;103150.28;;;4.19;100.00
44765;BME280;30484;52.382;5.260;2023-03-01T08:32:36;103155.63;;;4.24;100.00
44765;BME280;30484;52.382;5.260;2023-03-01T08:35:07;103149.41;;;4.22;100.00
44765;BME280;30484;52.382;5.260;2023-03-01T08:37:36;103151.47;;;4.43;100.00
44765;BME280;30484;52.382;5.260;2023-03-01T08:40:06;103149.03;;;4.61;100.00
44765;BME280;30484;52.382;5.260;2023-03-01T08:42:38;103155.34;;;4.73;100.00
44765;BME280;30484;52.382;5.260;2023-03-01T08:45:07;103146.72;;;4.91;100.00
44765;BME280;30484;52.382;5.260;2023-03-01T08:47:36;103151.22;;;4.98;100.00
44765;BME280;30484;52.382;5.260;2023-03-01T08:50:07;103152.41;;;5.29;100.00
44765;BME280;30484;52.382;5.260;2023-03-01T08:52:36;103149.19;;;5.67;100.00
44765;BME280;30484;52.382;5.260;2023-03-01T08:55:05;103145.63;;;5.68;100.00
44765;BME280;30484;52.382;5.260;2023-03-01T08:57:33;103133.47;;;6.00;100.00
44765;BME280;30484;52.382;5.260;2023-03-01T09:00:02;103145.13;;;6.28;100.00
44765;BME280;30484;52.382;5.260;2023-03-01T09:02:36;103138.00;;;6.18;100.00
44765;BME280;30484;52.382;5.260;2023-03-01T09:05:08;103117.81;;;6.59;100.00
44765;BME280;30484;52.382;5.260;2023-03-01T09:07:36;103114.34;;;6.92;100.00
44765;BME280;30484;52.382;5.260;2023-03-01T09:10:05;103117.00;;;6.98;100.00
44765;BME280;30484;52.382;5.260;2023-03-01T09:12:34;103114.38;;;7.14;100.00
44765;BME280;30484;52.382;5.260;2023-03-01T09:15:03;103106.41;;;7.46;100.00
44765;BME280;30484;52.382;5.260;2023-03-01T09:17:31;103110.84;;;7.30;100.00
44765;BME280;30484;52.382;5.260;2023-03-01T09:19:59;103101.03;;;7.71;100.00
44765;BME280;30484;52.382;5.260;2023-03-01T09:22:29;103099.28;;;7.59;100.00
44765;BME280;30484;52.382;5.260;2023-03-01T09:24:57;103099.28;;;7.62;100.00
44765;BME280;30484;52.382;5.260;2023-03-01T09:27:44;103098.31;;;7.99;100.00
44765;BME280;30484;52.382;5.260;2023-03-01T09:30:32;103095.53;;;8.25;100.00
44765;BME280;30484;52.382;5.260;2023-03-01T09:33:00;103090.97;;;8.58;100.00
44765;BME280;30484;52.382;5.260;2023-03-01T09:35:30;103092.69;;;8.70;100.00
44765;BME280;30484;52.382;5.260;2023-03-01T09:38:00;103095.31;;;8.74;100.00
44765;BME280;30484;52.382;5.260;2023-03-01T09:40:28;103089.13;;;8.69;100.00
44765;BME280;30484;52.382;5.260;2023-03-01T09:43:01;103089.00;;;8.91;100.00
44765;BME280;30484;52.382;5.260;2023-03-01T09:45:35;103101.19;;;9.23;100.00
44765;BME280;30484;52.382;5.260;2023-03-01T09:48:08;103096.56;;;9.40;100.00
44765;BME280;30484;52.382;5.260;2023-03-01T09:50:41;103095.66;;;9.44;100.00
44765;BME280;30484;52.382;5.260;2023-03-01T09:53:16;103084.06;;;9.48;100.00
44765;BME280;30484;52.382;5.260;2023-03-01T09:55:46;103094.44;;;9.78;100.00
44765;BME280;30484;52.382;5.260;2023-03-01T09:58:31;103099.09;;;9.56;100.00
44765;BME280;30484;52.382;5.260;2023-03-01T10:01:10;103093.63;;;9.70;100.00
44765;BME280;30484;52.382;5.260;2023-03-01T10:03:43;103092.91;;;9.54;100.00
44765;BME280;30484;52.382;5.260;2023-03-01T10:06:14;103087.47;;;9.61;100.00
44765;BME280;30484;52.382;5.260;2023-03-01T10:09:04;103086.09;;;10.06;100.00
44765;BME280;30484;52.382;5.260;2023-03-01T10:11:37;103083.47;;;10.02;100.00
44765;BME280;30484;52.382;5.260;2023-03-01T10:14:15;103080.03;;;10.63;100.00
44765;BME280;30484;52.382;5.260;2023-03-01T10:16:50;103083.03;;;10.40;100.00
44765;BME280;30484;52.382;5.260;2023-03-01T10:19:23;103086.16;;;10.71;100.00
44765;BME280;30484;52.382;5.260;2023-03-01T10:21:52;103079.72;;;10.84;100.00
44765;BME280;30484;52.382;5.260;2023-03-01T10:24:23;103079.06;;;10.68;100.00
44765;BME280;30484;52.382;5.260;2023-03-01T10:26:55;103076.13;;;10.85;100.00
44765;BME280;30484;52.382;5.260;2023-03-01T10:29:26;103065.34;;;10.93;100.00
44765;BME280;30484;52.382;5.260;2023-03-01T10:31:59;103068.09;;;10.87;100.00
44765;BME280;30484;52.382;5.260;2023-03-01T10:34:29;103070.38;;;11.12;100.00
44765;BME280;30484;52.382;5.260;2023-03-01T10:37:00;103068.59;;;11.11;100.00
44765;BME280;30484;52.382;5.260;2023-03-01T10:39:33;103068.59;;;10.55;100.00
44765;BME280;30484;52.382;5.260;2023-03-01T10:42:03;103066.16;;;11.48;100.00
44765;BME280;30484;52.382;5.260;2023-03-01T10:44:44;103058.28;;;10.87;100.00
44765;BME280;30484;52.382;5.260;2023-03-01T10:47:16;103037.94;;;11.30;100.00
44765;BME280;30484;52.382;5.260;2023-03-01T10:49:53;103050.94;;;11.52;100.00
44765;BME280;30484;52.382;5.260;2023-03-01T10:52:23;103057.16;;;11.52;100.00
44765;BME280;30484;52.382;5.260;2023-03-01T10:54:56;103050.03;;;11.53;100.00
44765;BME280;30484;52.382;5.260;2023-03-01T10:57:31;103043.38;;;11.72;100.00
44765;BME280;30484;52.382;5.260;2023-03-01T11:00:15;103036.19;;;11.76;100.00
44765;BME280;30484;52.382;5.260;2023-03-01T11:02:48;103023.38;;;11.90;100.00
44765;BME280;30484;52.382;5.260;2023-03-01T11:05:20;103018.47;;;11.69;100.00
44765;BME280;30484;52.382;5.260;2023-03-01T11:07:52;103024.34;;;11.86;100.00
44765;BME280;30484;52.382;5.260;2023-03-01T11:10:24;103020.50;;;12.03;100.00
44765;BME280;30484;52.382;5.260;2023-03-01T11:13:04;103006.16;;;11.60;100.00
44765;BME280;30484;52.382;5.260;2023-03-01T11:15:34;103018.16;;;12.26;100.00
44765;BME280;30484;52.382;5.260;2023-03-01T11:18:03;103017.22;;;12.29;100.00
44765;BME280;30484;52.382;5.260;2023-03-01T11:20:40;103015.41;;;12.69;100.00
44765;BME280;30484;52.382;5.260;2023-03-01T11:23:10;103013.63;;;12.68;100.00
44765;BME280;30484;52.382;5.260;2023-03-01T11:25:42;103004.13;;;12.90;100.00
44765;BME280;30484;52.382;5.260;2023-03-01T11:28:13;103004.69;;;13.03;100.00
44765;BME280;30484;52.382;5.260;2023-03-01T11:30:49;102994.66;;;12.38;98.03
44765;BME280;30484;52.382;5.260;2023-03-01T11:33:37;102999.97;;;13.48;100.00
44765;BME280;30484;52.382;5.260;2023-03-01T11:36:11;103000.16;;;13.05;95.50
44765;BME280;30484;52.382;5.260;2023-03-01T11:38:42;102980.97;;;13.55;96.91
44765;BME280;30484;52.382;5.260;2023-03-01T11:41:15;102980.44;;;13.74;96.76
44765;BME280;30484;52.382;5.260;2023-03-01T11:43:49;102982.16;;;13.75;91.71
44765;BME280;30484;52.382;5.260;2023-03-01T11:46:35;102987.47;;;13.12;94.92
44765;BME280;30484;52.382;5.260;2023-03-01T11:52:03;102974.16;;;13.42;92.43
44765;BME280;30484;52.382;5.260;2023-03-01T11:54:44;102973.16;;;13.46;97.15
44765;BME280;30484;52.382;5.260;2023-03-01T11:57:33;102967.19;;;13.35;89.70
44765;BME280;30484;52.382;5.260;2023-03-01T12:00:25;102973.34;;;13.40;92.59
44765;BME280;30484;52.382;5.260;2023-03-01T12:03:13;102974.84;;;12.81;92.66
44765;BME280;30484;52.382;5.260;2023-03-01T12:06:20;102965.38;;;13.37;93.08
44765;BME280;30484;52.382;5.260;2023-03-01T12:09:00;102969.22;;;13.58;89.01
44765;BME280;30484;52.382;5.260;2023-03-01T12:11:38;102970.25;;;12.86;91.23
44765;BME280;30484;52.382;5.260;2023-03-01T12:14:21;102971.81;;;12.95;85.11
44765;BME280;30484;52.382;5.260;2023-03-01T12:17:33;102958.88;;;12.76;89.24
44765;BME280;30484;52.382;5.260;2023-03-01T12:20:19;102965.28;;;13.40;91.19
44765;BME280;30484;52.382;5.260;2023-03-01T12:22:59;102945.19;;;12.87;91.82
44765;BME280;30484;52.382;5.260;2023-03-01T12:25:51;102940.94;;;13.13;89.21
44765;BME280;30484;52.382;5.260;2023-03-01T12:28:30;102933.63;;;13.51;93.24
44765;BME280;30484;52.382;5.260;2023-03-01T12:31:14;102926.59;;;13.47;94.25
44765;BME280;30484;52.382;5.260;2023-03-01T12:33:50;102932.63;;;13.84;98.26
44765;BME280;30484;52.382;5.260;2023-03-01T12:36:34;102935.22;;;13.88;100.00
44765;BME280;30484;52.382;5.260;2023-03-01T12:39:17;102927.09;;;13.28;95.50
44765;BME280;30484;52.382;5.260;2023-03-01T12:41:50;102912.97;;;13.83;100.00
44765;BME280;30484;52.382;5.260;2023-03-01T12:44:35;102923.13;;;13.42;96.80
44765;BME280;30484;52.382;5.260;2023-03-01T12:47:31;102927.25;;;13.54;100.00
44765;BME280;30484;52.382;5.260;2023-03-01T12:50:10;102934.34;;;13.56;96.09
44765;BME280;30484;52.382;5.260;2023-03-01T12:52:42;102922.81;;;13.21;93.47
44765;BME280;30484;52.382;5.260;2023-03-01T12:55:23;102922.41;;;13.37;89.35
44765;BME280;30484;52.382;5.260;2023-03-01T12:57:57;102929.13;;;12.51;90.60
44765;BME280;30484;52.382;5.260;2023-03-01T13:00:31;102917.19;;;13.62;93.84
44765;BME280;30484;52.382;5.260;2023-03-01T13:03:12;102920.09;;;13.54;86.45
44765;BME280;30484;52.382;5.260;2023-03-01T13:05:47;102933.56;;;12.87;88.76
44765;BME280;30484;52.382;5.260;2023-03-01T13:08:27;102914.78;;;12.88;88.36
44765;BME280;30484;52.382;5.260;2023-03-01T13:10:59;102918.94;;;13.63;91.14
44765;BME280;30484;52.382;5.260;2023-03-01T13:13:30;102906.19;;;12.02;86.18
44765;BME280;30484;52.382;5.260;2023-03-01T13:16:20;102908.59;;;12.50;87.34